sensor_id;sensor_type;location;lat;lon;timestamp;P1;durP1;ratioP1;P2;durP2;ratioP2
72379;SDS011;60354;47.798;12.472;2023-08-21T00:01:15;7.38;;;4.78;;
72379;SDS011;60354;47.798;12.472;2023-08-21T00:03:40;6.97;;;4.40;;
72379;SDS011;60354;47.798;12.472;2023-08-21T00:06:06;7.00;;;5.07;;
72379;SDS011;60354;47.798;12.472;2023-08-21T00:08:31;6.35;;;4.85;;
72379;SDS011;60354;47.798;12.472;2023-08-21T00:10:56;6.22;;;4.68;;
72379;SDS011;60354;47.798;12.472;2023-08-21T00:13:22;8.30;;;4.80;;
72379;SDS011;60354;47.798;12.472;2023-08-21T00:15:47;5.93;;;4.60;;
72379;SDS011;60354;47.798;12.472;2023-08-21T00:18:13;7.07;;;4.65;;
72379;SDS011;60354;47.798;12.472;2023-08-21T00:20:39;8.05;;;4.90;;
72379;SDS011;60354;47.798;12.472;2023-08-21T00:23:06;6.35;;;4.80;;
72379;SDS011;60354;47.798;12.472;2023-08-21T00:25:33;7.20;;;4.78;;
72379;SDS011;60354;47.798;12.472;2023-08-21T00:27:58;6.03;;;4.50;;
72379;SDS011;60354;47.798;12.472;2023-08-21T00:30:26;6.63;;;4.63;;
72379;SDS011;60354;47.798;12.472;2023-08-21T00:32:52;7.20;;;4.93;;
72379;SDS011;60354;47.798;12.472;2023-08-21T00:35:18;6.18;;;4.78;;
72379;SDS011;60354;47.798;12.472;2023-08-21T00:37:44;6.55;;;5.00;;
72379;SDS011;60354;47.798;12.472;2023-08-21T00:40:09;9.15;;;5.10;;
72379;SDS011;60354;47.798;12.472;2023-08-21T00:42:35;8.05;;;4.97;;
72379;SDS011;60354;47.798;12.472;2023-08-21T00:45:01;8.15;;;5.97;;
72379;SDS011;60354;47.798;12.472;2023-08-21T00:47:28;9.65;;;5.10;;
72379;SDS011;60354;47.798;12.472;2023-08-21T00:49:54;6.68;;;4.85;;
72379;SDS011;60354;47.798;12.472;2023-08-21T00:52:20;6.40;;;4.80;;
72379;SDS011;60354;47.798;12.472;2023-08-21T00:54:45;6.90;;;4.60;;
72379;SDS011;60354;47.798;12.472;2023-08-21T00:57:11;7.85;;;5.22;;
72379;SDS011;60354;47.798;12.472;2023-08-21T00:59:38;7.38;;;4.80;;
72379;SDS011;60354;47.798;12.472;2023-08-21T01:02:04;7.07;;;4.65;;
72379;SDS011;60354;47.798;12.472;2023-08-21T01:04:29;7.43;;;5.00;;
72379;SDS011;60354;47.798;12.472;2023-08-21T01:06:56;8.75;;;4.85;;
72379;SDS011;60354;47.798;12.472;2023-08-21T01:12:44;8.07;;;4.75;;
72379;SDS011;60354;47.798;12.472;2023-08-21T01:15:16;5.93;;;4.68;;
72379;SDS011;60354;47.798;12.472;2023-08-21T01:17:42;7.50;;;4.93;;
72379;SDS011;60354;47.798;12.472;2023-08-21T01:20:10;6.85;;;4.72;;
72379;SDS011;60354;47.798;12.472;2023-08-21T01:22:38;6.10;;;4.30;;
72379;SDS011;60354;47.798;12.472;2023-08-21T01:25:05;8.25;;;4.45;;
72379;SDS011;60354;47.798;12.472;2023-08-21T01:27:31;8.63;;;4.32;;
72379;SDS011;60354;47.798;12.472;2023-08-21T01:30:00;8.15;;;4.68;;
72379;SDS011;60354;47.798;12.472;2023-08-21T01:32:50;6.82;;;4.63;;
72379;SDS011;60354;47.798;12.472;2023-08-21T01:35:17;7.78;;;4.80;;
72379;SDS011;60354;47.798;12.472;2023-08-21T01:37:43;7.25;;;5.07;;
72379;SDS011;60354;47.798;12.472;2023-08-21T01:40:09;6.50;;;4.63;;
72379;SDS011;60354;47.798;12.472;2023-08-21T01:42:35;8.85;;;5.07;;
72379;SDS011;60354;47.798;12.472;2023-08-21T01:45:00;5.72;;;4.43;;
72379;SDS011;60354;47.798;12.472;2023-08-21T01:47:27;7.18;;;4.60;;
72379;SDS011;60354;47.798;12.472;2023-08-21T01:49:53;7.40;;;4.80;;
72379;SDS011;60354;47.798;12.472;2023-08-21T01:52:18;8.45;;;4.53;;
72379;SDS011;60354;47.798;12.472;2023-08-21T01:54:44;7.05;;;4.40;;
72379;SDS011;60354;47.798;12.472;2023-08-21T01:57:09;5.30;;;4.53;;
72379;SDS011;60354;47.798;12.472;2023-08-21T01:59:35;7.45;;;4.82;;
72379;SDS011;60354;47.798;12.472;2023-08-21T02:02:01;7.40;;;4.50;;
72379;SDS011;60354;47.798;12.472;2023-08-21T02:04:26;8.05;;;4.78;;
72379;SDS011;60354;47.798;12.472;2023-08-21T02:06:51;9.73;;;5.05;;
72379;SDS011;60354;47.798;12.472;2023-08-21T02:09:17;8.10;;;5.15;;
72379;SDS011;60354;47.798;12.472;2023-08-21T02:11:42;5.93;;;4.78;;
72379;SDS011;60354;47.798;12.472;2023-08-21T02:14:08;6.60;;;4.30;;
72379;SDS011;60354;47.798;12.472;2023-08-21T02:16:33;7.18;;;4.05;;
72379;SDS011;60354;47.798;12.472;2023-08-21T02:18:59;7.10;;;4.50;;
72379;SDS011;60354;47.798;12.472;2023-08-21T02:21:24;6.55;;;4.43;;
72379;SDS011;60354;47.798;12.472;2023-08-21T02:23:50;9.02;;;4.60;;
72379;SDS011;60354;47.798;12.472;2023-08-21T02:26:15;9.63;;;4.47;;
72379;SDS011;60354;47.798;12.472;2023-08-21T02:28:41;5.95;;;4.18;;
72379;SDS011;60354;47.798;12.472;2023-08-21T02:31:11;5.90;;;4.18;;
72379;SDS011;60354;47.798;12.472;2023-08-21T02:33:37;9.07;;;4.53;;
72379;SDS011;60354;47.798;12.472;2023-08-21T02:36:03;10.25;;;4.35;;
72379;SDS011;60354;47.798;12.472;2023-08-21T02:38:29;8.35;;;5.05;;
72379;SDS011;60354;47.798;12.472;2023-08-21T02:40:56;9.55;;;4.43;;
72379;SDS011;60354;47.798;12.472;2023-08-21T02:43:21;7.10;;;4.82;;
72379;SDS011;60354;47.798;12.472;2023-08-21T02:45:47;5.80;;;4.80;;
72379;SDS011;60354;47.798;12.472;2023-08-21T02:48:12;7.07;;;4.50;;
72379;SDS011;60354;47.798;12.472;2023-08-21T02:50:38;7.55;;;4.57;;
72379;SDS011;60354;47.798;12.472;2023-08-21T02:53:03;9.43;;;5.00;;
72379;SDS011;60354;47.798;12.472;2023-08-21T02:55:29;8.05;;;4.50;;
72379;SDS011;60354;47.798;12.472;2023-08-21T02:57:55;8.50;;;4.63;;
72379;SDS011;60354;47.798;12.472;2023-08-21T03:00:20;8.90;;;4.60;;
72379;SDS011;60354;47.798;12.472;2023-08-21T03:02:45;7.72;;;4.50;;
72379;SDS011;60354;47.798;12.472;2023-08-21T03:05:11;10.63;;;4.72;;
72379;SDS011;60354;47.798;12.472;2023-08-21T03:07:37;5.35;;;4.30;;
72379;SDS011;60354;47.798;12.472;2023-08-21T03:10:02;6.75;;;4.50;;
72379;SDS011;60354;47.798;12.472;2023-08-21T03:12:28;6.63;;;4.35;;
72379;SDS011;60354;47.798;12.472;2023-08-21T03:14:54;9.00;;;4.68;;
72379;SDS011;60354;47.798;12.472;2023-08-21T03:17:19;6.97;;;4.43;;
72379;SDS011;60354;47.798;12.472;2023-08-21T03:19:45;8.15;;;4.13;;
72379;SDS011;60354;47.798;12.472;2023-08-21T03:22:10;6.22;;;4.53;;
72379;SDS011;60354;47.798;12.472;2023-08-21T03:24:36;6.00;;;4.22;;
72379;SDS011;60354;47.798;12.472;2023-08-21T03:27:02;7.82;;;4.20;;
72379;SDS011;60354;47.798;12.472;2023-08-21T03:29:28;7.18;;;4.25;;
72379;SDS011;60354;47.798;12.472;2023-08-21T03:31:53;7.70;;;4.22;;
72379;SDS011;60354;47.798;12.472;2023-08-21T03:34:21;8.77;;;4.28;;
72379;SDS011;60354;47.798;12.472;2023-08-21T03:36:49;7.22;;;4.10;;
72379;SDS011;60354;47.798;12.472;2023-08-21T03:39:15;7.35;;;4.40;;
72379;SDS011;60354;47.798;12.472;2023-08-21T03:41:44;9.32;;;4.70;;
72379;SDS011;60354;47.798;12.472;2023-08-21T03:44:09;8.45;;;4.38;;
72379;SDS011;60354;47.798;12.472;2023-08-21T03:46:35;6.70;;;4.30;;
72379;SDS011;60354;47.798;12.472;2023-08-21T03:49:00;9.23;;;4.50;;
72379;SDS011;60354;47.798;12.472;2023-08-21T03:51:26;6.47;;;4.43;;
72379;SDS011;60354;47.798;12.472;2023-08-21T03:53:52;6.65;;;4.25;;
72379;SDS011;60354;47.798;12.472;2023-08-21T03:56:17;9.20;;;4.40;;
72379;SDS011;60354;47.798;12.472;2023-08-21T03:58:44;8.98;;;4.40;;
72379;SDS011;60354;47.798;12.472;2023-08-21T04:01:10;8.10;;;4.45;;
72379;SDS011;60354;47.798;12.472;2023-08-21T04:03:35;6.30;;;4.32;;
72379;SDS011;60354;47.798;12.472;2023-08-21T04:06:02;8.80;;;4.40;;
72379;SDS011;60354;47.798;12.472;2023-08-21T04:08:27;9.57;;;4.50;;
72379;SDS011;60354;47.798;12.472;2023-08-21T04:10:53;7.10;;;4.40;;
72379;SDS011;60354;47.798;12.472;2023-08-21T04:13:20;9.07;;;4.65;;
72379;SDS011;60354;47.798;12.472;2023-08-21T04:15:45;7.30;;;4.55;;
72379;SDS011;60354;47.798;12.472;2023-08-21T04:18:11;6.82;;;4.50;;
72379;SDS011;60354;47.798;12.472;2023-08-21T04:20:37;8.80;;;4.90;;
72379;SDS011;60354;47.798;12.472;2023-08-21T04:23:03;6.18;;;4.07;;
72379;SDS011;60354;47.798;12.472;2023-08-21T04:25:28;8.00;;;4.53;;
72379;SDS011;60354;47.798;12.472;2023-08-21T04:27:54;8.50;;;4.03;;
72379;SDS011;60354;47.798;12.472;2023-08-21T04:30:20;7.82;;;4.15;;
72379;SDS011;60354;47.798;12.472;2023-08-21T04:32:47;6.20;;;4.07;;
72379;SDS011;60354;47.798;12.472;2023-08-21T04:35:13;7.13;;;4.30;;
72379;SDS011;60354;47.798;12.472;2023-08-21T04:37:46;8.75;;;4.35;;
72379;SDS011;60354;47.798;12.472;2023-08-21T04:40:13;13.50;;;4.23;;
72379;SDS011;60354;47.798;12.472;2023-08-21T04:42:39;8.48;;;4.50;;
72379;SDS011;60354;47.798;12.472;2023-08-21T04:45:05;6.25;;;4.43;;
72379;SDS011;60354;47.798;12.472;2023-08-21T04:47:33;4.97;;;3.88;;
72379;SDS011;60354;47.798;12.472;2023-08-21T04:49:59;5.95;;;4.28;;
72379;SDS011;60354;47.798;12.472;2023-08-21T04:52:26;7.57;;;4.25;;
72379;SDS011;60354;47.798;12.472;2023-08-21T04:54:53;8.60;;;3.88;;
72379;SDS011;60354;47.798;12.472;2023-08-21T04:57:19;8.88;;;4.43;;
72379;SDS011;60354;47.798;12.472;2023-08-21T04:59:46;5.15;;;4.15;;
72379;SDS011;60354;47.798;12.472;2023-08-21T05:02:13;9.20;;;4.50;;
72379;SDS011;60354;47.798;12.472;2023-08-21T05:04:38;8.45;;;4.53;;
72379;SDS011;60354;47.798;12.472;2023-08-21T05:07:05;6.63;;;4.18;;
72379;SDS011;60354;47.798;12.472;2023-08-21T05:09:31;10.02;;;4.30;;
72379;SDS011;60354;47.798;12.472;2023-08-21T05:11:57;8.00;;;4.50;;
72379;SDS011;60354;47.798;12.472;2023-08-21T05:14:23;7.18;;;4.30;;
72379;SDS011;60354;47.798;12.472;2023-08-21T05:16:49;10.73;;;4.40;;
72379;SDS011;60354;47.798;12.472;2023-08-21T05:19:16;9.73;;;4.30;;
72379;SDS011;60354;47.798;12.472;2023-08-21T05:21:42;10.18;;;4.43;;
72379;SDS011;60354;47.798;12.472;2023-08-21T05:24:08;9.40;;;4.20;;
72379;SDS011;60354;47.798;12.472;2023-08-21T05:26:37;6.07;;;4.15;;
72379;SDS011;60354;47.798;12.472;2023-08-21T05:29:03;6.60;;;4.18;;
72379;SDS011;60354;47.798;12.472;2023-08-21T05:31:28;8.13;;;4.32;;
72379;SDS011;60354;47.798;12.472;2023-08-21T05:33:54;6.43;;;4.30;;
72379;SDS011;60354;47.798;12.472;2023-08-21T05:36:20;5.05;;;4.15;;
72379;SDS011;60354;47.798;12.472;2023-08-21T05:38:45;8.98;;;4.50;;
72379;SDS011;60354;47.798;12.472;2023-08-21T05:41:13;9.23;;;4.50;;
72379;SDS011;60354;47.798;12.472;2023-08-21T05:43:39;7.43;;;3.97;;
72379;SDS011;60354;47.798;12.472;2023-08-21T05:46:08;9.13;;;4.22;;
72379;SDS011;60354;47.798;12.472;2023-08-21T05:48:34;5.57;;;4.28;;
72379;SDS011;60354;47.798;12.472;2023-08-21T05:50:59;7.57;;;3.97;;
72379;SDS011;60354;47.798;12.472;2023-08-21T05:53:25;6.80;;;3.90;;
72379;SDS011;60354;47.798;12.472;2023-08-21T05:55:52;6.25;;;3.78;;
72379;SDS011;60354;47.798;12.472;2023-08-21T05:58:19;9.60;;;4.10;;
72379;SDS011;60354;47.798;12.472;2023-08-21T06:00:46;5.55;;;3.45;;
72379;SDS011;60354;47.798;12.472;2023-08-21T06:03:12;9.38;;;3.92;;
72379;SDS011;60354;47.798;12.472;2023-08-21T06:06:04;7.10;;;4.00;;
72379;SDS011;60354;47.798;12.472;2023-08-21T06:08:30;8.45;;;4.30;;
72379;SDS011;60354;47.798;12.472;2023-08-21T06:10:56;7.28;;;3.90;;
72379;SDS011;60354;47.798;12.472;2023-08-21T06:13:21;10.13;;;4.10;;
72379;SDS011;60354;47.798;12.472;2023-08-21T06:15:50;7.70;;;3.90;;
72379;SDS011;60354;47.798;12.472;2023-08-21T06:18:16;7.43;;;3.88;;
72379;SDS011;60354;47.798;12.472;2023-08-21T06:20:42;7.03;;;3.70;;
72379;SDS011;60354;47.798;12.472;2023-08-21T06:23:11;4.75;;;3.55;;
72379;SDS011;60354;47.798;12.472;2023-08-21T06:25:37;7.45;;;3.78;;
72379;SDS011;60354;47.798;12.472;2023-08-21T06:28:03;8.13;;;4.00;;
72379;SDS011;60354;47.798;12.472;2023-08-21T06:30:29;6.80;;;3.78;;
72379;SDS011;60354;47.798;12.472;2023-08-21T06:32:54;6.20;;;3.67;;
72379;SDS011;60354;47.798;12.472;2023-08-21T06:35:21;8.20;;;3.90;;
72379;SDS011;60354;47.798;12.472;2023-08-21T06:37:47;5.22;;;3.50;;
72379;SDS011;60354;47.798;12.472;2023-08-21T06:40:12;8.15;;;3.90;;
72379;SDS011;60354;47.798;12.472;2023-08-21T06:42:38;5.85;;;3.75;;
72379;SDS011;60354;47.798;12.472;2023-08-21T06:45:04;8.95;;;4.20;;
72379;SDS011;60354;47.798;12.472;2023-08-21T06:47:30;7.50;;;4.00;;
72379;SDS011;60354;47.798;12.472;2023-08-21T06:49:56;8.90;;;4.00;;
72379;SDS011;60354;47.798;12.472;2023-08-21T06:52:21;7.18;;;3.60;;
72379;SDS011;60354;47.798;12.472;2023-08-21T06:54:47;8.73;;;3.92;;
72379;SDS011;60354;47.798;12.472;2023-08-21T06:57:12;5.95;;;3.80;;
72379;SDS011;60354;47.798;12.472;2023-08-21T06:59:38;5.22;;;3.70;;
72379;SDS011;60354;47.798;12.472;2023-08-21T07:02:03;6.47;;;3.80;;
72379;SDS011;60354;47.798;12.472;2023-08-21T07:04:29;4.88;;;3.70;;
72379;SDS011;60354;47.798;12.472;2023-08-21T07:06:55;5.05;;;3.47;;
72379;SDS011;60354;47.798;12.472;2023-08-21T07:09:20;6.25;;;3.38;;
72379;SDS011;60354;47.798;12.472;2023-08-21T07:11:46;6.78;;;3.58;;
72379;SDS011;60354;47.798;12.472;2023-08-21T07:14:11;6.25;;;3.88;;
72379;SDS011;60354;47.798;12.472;2023-08-21T07:16:39;8.65;;;3.70;;
72379;SDS011;60354;47.798;12.472;2023-08-21T07:19:04;6.90;;;3.80;;
72379;SDS011;60354;47.798;12.472;2023-08-21T07:21:30;7.97;;;3.65;;
72379;SDS011;60354;47.798;12.472;2023-08-21T07:23:55;7.47;;;3.90;;
72379;SDS011;60354;47.798;12.472;2023-08-21T07:26:21;6.40;;;3.60;;
72379;SDS011;60354;47.798;12.472;2023-08-21T07:28:46;7.32;;;4.32;;
72379;SDS011;60354;47.798;12.472;2023-08-21T07:31:12;8.57;;;3.45;;
72379;SDS011;60354;47.798;12.472;2023-08-21T07:33:37;6.38;;;3.70;;
72379;SDS011;60354;47.798;12.472;2023-08-21T07:36:03;9.23;;;4.03;;
72379;SDS011;60354;47.798;12.472;2023-08-21T07:38:31;7.93;;;3.70;;
72379;SDS011;60354;47.798;12.472;2023-08-21T07:41:06;6.90;;;3.75;;
72379;SDS011;60354;47.798;12.472;2023-08-21T07:43:36;7.15;;;3.70;;
72379;SDS011;60354;47.798;12.472;2023-08-21T07:46:03;7.18;;;3.22;;
72379;SDS011;60354;47.798;12.472;2023-08-21T07:48:32;8.73;;;3.22;;
72379;SDS011;60354;47.798;12.472;2023-08-21T07:50:58;6.90;;;3.55;;
72379;SDS011;60354;47.798;12.472;2023-08-21T07:53:25;7.65;;;4.03;;
72379;SDS011;60354;47.798;12.472;2023-08-21T07:55:51;9.35;;;3.90;;
72379;SDS011;60354;47.798;12.472;2023-08-21T07:58:17;7.32;;;3.60;;
72379;SDS011;60354;47.798;12.472;2023-08-21T08:00:42;6.88;;;3.78;;
72379;SDS011;60354;47.798;12.472;2023-08-21T08:03:08;8.30;;;3.75;;
72379;SDS011;60354;47.798;12.472;2023-08-21T08:05:35;5.63;;;3.70;;
72379;SDS011;60354;47.798;12.472;2023-08-21T08:08:01;5.05;;;3.83;;
72379;SDS011;60354;47.798;12.472;2023-08-21T08:10:27;6.90;;;3.90;;
72379;SDS011;60354;47.798;12.472;2023-08-21T08:12:53;8.70;;;4.07;;
72379;SDS011;60354;47.798;12.472;2023-08-21T08:15:19;7.82;;;3.92;;
72379;SDS011;60354;47.798;12.472;2023-08-21T08:17:45;7.22;;;3.40;;
72379;SDS011;60354;47.798;12.472;2023-08-21T08:20:11;10.90;;;3.50;;
72379;SDS011;60354;47.798;12.472;2023-08-21T08:22:37;5.53;;;3.70;;
72379;SDS011;60354;47.798;12.472;2023-08-21T08:25:03;7.38;;;3.90;;
72379;SDS011;60354;47.798;12.472;2023-08-21T08:27:31;6.55;;;3.92;;
72379;SDS011;60354;47.798;12.472;2023-08-21T08:29:57;7.32;;;3.80;;
72379;SDS011;60354;47.798;12.472;2023-08-21T08:32:23;6.10;;;3.75;;
72379;SDS011;60354;47.798;12.472;2023-08-21T08:34:48;9.45;;;3.72;;
72379;SDS011;60354;47.798;12.472;2023-08-21T08:37:14;4.88;;;3.40;;
72379;SDS011;60354;47.798;12.472;2023-08-21T08:39:39;7.90;;;3.70;;
72379;SDS011;60354;47.798;12.472;2023-08-21T08:42:05;9.10;;;3.70;;
72379;SDS011;60354;47.798;12.472;2023-08-21T08:44:31;6.90;;;3.67;;
72379;SDS011;60354;47.798;12.472;2023-08-21T08:47:03;7.80;;;4.00;;
72379;SDS011;60354;47.798;12.472;2023-08-21T08:49:29;7.10;;;3.90;;
72379;SDS011;60354;47.798;12.472;2023-08-21T08:51:56;5.85;;;3.65;;
72379;SDS011;60354;47.798;12.472;2023-08-21T08:54:23;5.70;;;3.90;;
72379;SDS011;60354;47.798;12.472;2023-08-21T08:56:50;5.75;;;3.50;;
72379;SDS011;60354;47.798;12.472;2023-08-21T08:59:16;6.95;;;3.63;;
72379;SDS011;60354;47.798;12.472;2023-08-21T09:01:42;8.05;;;3.60;;
72379;SDS011;60354;47.798;12.472;2023-08-21T09:04:07;6.05;;;3.30;;
72379;SDS011;60354;47.798;12.472;2023-08-21T09:06:34;7.07;;;3.63;;
72379;SDS011;60354;47.798;12.472;2023-08-21T09:08:59;10.25;;;4.00;;
72379;SDS011;60354;47.798;12.472;2023-08-21T09:11:25;6.00;;;3.45;;
72379;SDS011;60354;47.798;12.472;2023-08-21T09:13:51;6.53;;;3.70;;
72379;SDS011;60354;47.798;12.472;2023-08-21T09:16:19;5.90;;;3.65;;
72379;SDS011;60354;47.798;12.472;2023-08-21T09:18:48;5.97;;;3.70;;
72379;SDS011;60354;47.798;12.472;2023-08-21T09:21:15;9.55;;;3.58;;
72379;SDS011;60354;47.798;12.472;2023-08-21T09:23:44;11.68;;;3.90;;
72379;SDS011;60354;47.798;12.472;2023-08-21T09:26:22;7.22;;;3.63;;
72379;SDS011;60354;47.798;12.472;2023-08-21T09:28:49;7.20;;;3.90;;
72379;SDS011;60354;47.798;12.472;2023-08-21T09:31:15;11.02;;;3.90;;
72379;SDS011;60354;47.798;12.472;2023-08-21T09:33:41;7.05;;;3.50;;
72379;SDS011;60354;47.798;12.472;2023-08-21T09:36:08;8.18;;;3.63;;
72379;SDS011;60354;47.798;12.472;2023-08-21T09:38:34;9.10;;;3.78;;
72379;SDS011;60354;47.798;12.472;2023-08-21T09:41:02;6.95;;;3.50;;
72379;SDS011;60354;47.798;12.472;2023-08-21T09:43:28;8.95;;;3.92;;
72379;SDS011;60354;47.798;12.472;2023-08-21T09:45:54;5.30;;;3.50;;
72379;SDS011;60354;47.798;12.472;2023-08-21T09:48:23;10.27;;;3.95;;
72379;SDS011;60354;47.798;12.472;2023-08-21T09:50:54;5.90;;;3.50;;
72379;SDS011;60354;47.798;12.472;2023-08-21T09:53:21;5.80;;;3.90;;
72379;SDS011;60354;47.798;12.472;2023-08-21T09:55:53;8.93;;;3.88;;
72379;SDS011;60354;47.798;12.472;2023-08-21T09:58:20;5.40;;;3.70;;
72379;SDS011;60354;47.798;12.472;2023-08-21T10:00:47;6.70;;;3.72;;
72379;SDS011;60354;47.798;12.472;2023-08-21T10:03:14;6.55;;;4.03;;
72379;SDS011;60354;47.798;12.472;2023-08-21T10:05:43;5.40;;;3.90;;
72379;SDS011;60354;47.798;12.472;2023-08-21T10:08:09;5.75;;;3.75;;
72379;SDS011;60354;47.798;12.472;2023-08-21T10:10:36;8.85;;;3.78;;
72379;SDS011;60354;47.798;12.472;2023-08-21T10:13:03;6.80;;;3.88;;
72379;SDS011;60354;47.798;12.472;2023-08-21T10:15:33;8.73;;;3.95;;
72379;SDS011;60354;47.798;12.472;2023-08-21T10:20:50;12.32;;;4.30;;
72379;SDS011;60354;47.798;12.472;2023-08-21T10:23:27;7.72;;;4.30;;
72379;SDS011;60354;47.798;12.472;2023-08-21T10:25:54;7.63;;;4.10;;
72379;SDS011;60354;47.798;12.472;2023-08-21T10:28:24;10.90;;;4.35;;
72379;SDS011;60354;47.798;12.472;2023-08-21T10:30:49;9.10;;;4.30;;
72379;SDS011;60354;47.798;12.472;2023-08-21T10:33:15;8.02;;;3.95;;
72379;SDS011;60354;47.798;12.472;2023-08-21T10:35:40;7.88;;;3.97;;
72379;SDS011;60354;47.798;12.472;2023-08-21T10:40:32;10.63;;;4.18;;
72379;SDS011;60354;47.798;12.472;2023-08-21T10:42:59;13.05;;;4.25;;
72379;SDS011;60354;47.798;12.472;2023-08-21T10:45:25;10.50;;;4.32;;
72379;SDS011;60354;47.798;12.472;2023-08-21T10:47:51;10.27;;;4.50;;
72379;SDS011;60354;47.798;12.472;2023-08-21T10:50:16;8.38;;;4.68;;
72379;SDS011;60354;47.798;12.472;2023-08-21T10:52:42;9.60;;;4.60;;
72379;SDS011;60354;47.798;12.472;2023-08-21T10:55:12;6.57;;;3.95;;
72379;SDS011;60354;47.798;12.472;2023-08-21T10:57:39;7.82;;;4.70;;
72379;SDS011;60354;47.798;12.472;2023-08-21T11:00:09;6.40;;;4.45;;
72379;SDS011;60354;47.798;12.472;2023-08-21T11:02:40;9.13;;;4.95;;
72379;SDS011;60354;47.798;12.472;2023-08-21T11:05:08;8.55;;;4.45;;
72379;SDS011;60354;47.798;12.472;2023-08-21T11:07:52;8.27;;;4.70;;
72379;SDS011;60354;47.798;12.472;2023-08-21T11:10:22;6.90;;;4.57;;
72379;SDS011;60354;47.798;12.472;2023-08-21T11:12:55;7.97;;;4.80;;
72379;SDS011;60354;47.798;12.472;2023-08-21T11:15:22;9.45;;;4.80;;
72379;SDS011;60354;47.798;12.472;2023-08-21T11:17:55;9.85;;;4.88;;
72379;SDS011;60354;47.798;12.472;2023-08-21T11:20:36;9.65;;;4.68;;
72379;SDS011;60354;47.798;12.472;2023-08-21T11:23:03;8.20;;;4.90;;
72379;SDS011;60354;47.798;12.472;2023-08-21T11:25:39;10.00;;;4.72;;
72379;SDS011;60354;47.798;12.472;2023-08-21T11:30:31;9.30;;;4.70;;
72379;SDS011;60354;47.798;12.472;2023-08-21T11:35:35;8.13;;;4.65;;
72379;SDS011;60354;47.798;12.472;2023-08-21T11:38:01;8.73;;;4.53;;
72379;SDS011;60354;47.798;12.472;2023-08-21T11:40:26;10.55;;;4.45;;
72379;SDS011;60354;47.798;12.472;2023-08-21T11:42:52;10.48;;;4.50;;
72379;SDS011;60354;47.798;12.472;2023-08-21T11:45:24;10.07;;;5.18;;
72379;SDS011;60354;47.798;12.472;2023-08-21T11:47:51;13.93;;;4.80;;
72379;SDS011;60354;47.798;12.472;2023-08-21T11:50:20;7.32;;;4.53;;
72379;SDS011;60354;47.798;12.472;2023-08-21T11:52:45;8.93;;;4.70;;
72379;SDS011;60354;47.798;12.472;2023-08-21T11:55:11;9.07;;;4.32;;
72379;SDS011;60354;47.798;12.472;2023-08-21T11:57:49;7.20;;;4.43;;
72379;SDS011;60354;47.798;12.472;2023-08-21T12:00:16;8.18;;;4.50;;
72379;SDS011;60354;47.798;12.472;2023-08-21T12:03:05;9.80;;;4.32;;
72379;SDS011;60354;47.798;12.472;2023-08-21T12:05:33;5.50;;;4.20;;
72379;SDS011;60354;47.798;12.472;2023-08-21T12:07:59;7.47;;;4.55;;
72379;SDS011;60354;47.798;12.472;2023-08-21T12:12:50;8.38;;;4.40;;
72379;SDS011;60354;47.798;12.472;2023-08-21T12:15:16;8.15;;;4.40;;
72379;SDS011;60354;47.798;12.472;2023-08-21T12:17:41;9.93;;;4.28;;
72379;SDS011;60354;47.798;12.472;2023-08-21T12:20:07;7.68;;;4.10;;
72379;SDS011;60354;47.798;12.472;2023-08-21T12:22:36;8.80;;;4.07;;
72379;SDS011;60354;47.798;12.472;2023-08-21T12:25:02;5.38;;;3.90;;
72379;SDS011;60354;47.798;12.472;2023-08-21T12:27:29;8.93;;;4.40;;
72379;SDS011;60354;47.798;12.472;2023-08-21T12:29:54;6.50;;;4.13;;
72379;SDS011;60354;47.798;12.472;2023-08-21T12:32:20;8.52;;;3.95;;
72379;SDS011;60354;47.798;12.472;2023-08-21T12:34:45;7.93;;;3.88;;
72379;SDS011;60354;47.798;12.472;2023-08-21T12:37:11;8.48;;;3.72;;
72379;SDS011;60354;47.798;12.472;2023-08-21T12:39:36;10.52;;;4.22;;
72379;SDS011;60354;47.798;12.472;2023-08-21T12:42:02;7.72;;;3.80;;
72379;SDS011;60354;47.798;12.472;2023-08-21T12:44:28;7.68;;;4.40;;
72379;SDS011;60354;47.798;12.472;2023-08-21T12:46:54;5.15;;;3.80;;
72379;SDS011;60354;47.798;12.472;2023-08-21T12:49:19;5.63;;;3.72;;
72379;SDS011;60354;47.798;12.472;2023-08-21T12:51:44;11.27;;;4.25;;
72379;SDS011;60354;47.798;12.472;2023-08-21T12:54:10;9.55;;;3.72;;
72379;SDS011;60354;47.798;12.472;2023-08-21T12:56:35;8.48;;;3.83;;
72379;SDS011;60354;47.798;12.472;2023-08-21T12:59:01;8.88;;;3.95;;
72379;SDS011;60354;47.798;12.472;2023-08-21T13:01:28;10.13;;;3.97;;
72379;SDS011;60354;47.798;12.472;2023-08-21T13:03:54;8.25;;;4.18;;
72379;SDS011;60354;47.798;12.472;2023-08-21T13:06:20;7.75;;;3.45;;
72379;SDS011;60354;47.798;12.472;2023-08-21T13:08:45;8.32;;;4.22;;
72379;SDS011;60354;47.798;12.472;2023-08-21T13:11:11;6.50;;;3.90;;
72379;SDS011;60354;47.798;12.472;2023-08-21T13:13:37;7.65;;;3.97;;
72379;SDS011;60354;47.798;12.472;2023-08-21T13:16:02;8.00;;;3.83;;
72379;SDS011;60354;47.798;12.472;2023-08-21T13:18:28;10.27;;;3.67;;
72379;SDS011;60354;47.798;12.472;2023-08-21T13:20:54;7.65;;;3.88;;
72379;SDS011;60354;47.798;12.472;2023-08-21T13:23:19;11.73;;;4.00;;
72379;SDS011;60354;47.798;12.472;2023-08-21T13:25:45;7.90;;;3.70;;
72379;SDS011;60354;47.798;12.472;2023-08-21T13:28:10;9.32;;;4.03;;
72379;SDS011;60354;47.798;12.472;2023-08-21T13:30:36;10.38;;;4.03;;
72379;SDS011;60354;47.798;12.472;2023-08-21T13:33:01;8.85;;;4.07;;
72379;SDS011;60354;47.798;12.472;2023-08-21T13:35:28;9.23;;;3.63;;
72379;SDS011;60354;47.798;12.472;2023-08-21T13:37:54;10.98;;;4.15;;
72379;SDS011;60354;47.798;12.472;2023-08-21T13:40:20;6.68;;;3.88;;
72379;SDS011;60354;47.798;12.472;2023-08-21T13:42:46;8.88;;;3.90;;
72379;SDS011;60354;47.798;12.472;2023-08-21T13:45:14;9.50;;;3.55;;
72379;SDS011;60354;47.798;12.472;2023-08-21T13:47:42;8.98;;;3.90;;
72379;SDS011;60354;47.798;12.472;2023-08-21T13:52:41;8.70;;;4.05;;
72379;SDS011;60354;47.798;12.472;2023-08-21T13:55:10;8.90;;;3.75;;
72379;SDS011;60354;47.798;12.472;2023-08-21T13:57:36;8.90;;;3.58;;
72379;SDS011;60354;47.798;12.472;2023-08-21T14:00:03;7.55;;;3.53;;
72379;SDS011;60354;47.798;12.472;2023-08-21T14:02:35;5.97;;;3.45;;
72379;SDS011;60354;47.798;12.472;2023-08-21T14:05:04;9.77;;;3.72;;
72379;SDS011;60354;47.798;12.472;2023-08-21T14:07:30;6.88;;;3.65;;
72379;SDS011;60354;47.798;12.472;2023-08-21T14:09:56;8.07;;;3.45;;
72379;SDS011;60354;47.798;12.472;2023-08-21T14:12:22;7.57;;;4.00;;
72379;SDS011;60354;47.798;12.472;2023-08-21T14:14:47;7.47;;;3.90;;
72379;SDS011;60354;47.798;12.472;2023-08-21T14:17:13;6.85;;;3.60;;
72379;SDS011;60354;47.798;12.472;2023-08-21T14:19:45;9.50;;;3.80;;
72379;SDS011;60354;47.798;12.472;2023-08-21T14:22:10;8.05;;;3.63;;
72379;SDS011;60354;47.798;12.472;2023-08-21T14:24:36;8.05;;;3.83;;
72379;SDS011;60354;47.798;12.472;2023-08-21T14:27:01;11.27;;;3.72;;
72379;SDS011;60354;47.798;12.472;2023-08-21T14:29:27;6.13;;;3.63;;
72379;SDS011;60354;47.798;12.472;2023-08-21T14:31:52;7.75;;;3.40;;
72379;SDS011;60354;47.798;12.472;2023-08-21T14:34:22;6.85;;;3.75;;
72379;SDS011;60354;47.798;12.472;2023-08-21T14:36:47;9.55;;;3.90;;
72379;SDS011;60354;47.798;12.472;2023-08-21T14:39:13;9.57;;;3.58;;
72379;SDS011;60354;47.798;12.472;2023-08-21T14:41:42;6.03;;;3.47;;
72379;SDS011;60354;47.798;12.472;2023-08-21T14:44:08;5.93;;;3.30;;
72379;SDS011;60354;47.798;12.472;2023-08-21T14:46:34;9.85;;;3.30;;
72379;SDS011;60354;47.798;12.472;2023-08-21T14:48:59;8.25;;;3.58;;